Time;durP1;ratioP1;P1;durP2;ratioP2;P2;SDS_P1;SDS_P2;PMS_P1;PMS_P2;Temp;Humidity;BMP_temperature;BMP_pressure;BME280_temperature;BME280_humidity;BME280_pressure;Samples;Min_cycle;Max_cycle;Signal;HPM_P1;HPM_P2
2021/06/06 00:00:08;;;;;;;23.73;15.00;;;15.60;99.90;;;;;;475949;249;28903;-72
2021/06/06 00:02:09;;;;;;;29.70;19.00;;;15.60;99.90;;;;;;475935;249;28973;-70
2021/06/06 00:04:11;;;;;;;28.43;17.33;;;15.60;99.90;;;;;;475992;249;29267;-74
2021/06/06 00:06:12;;;;;;;51.30;32.33;;;15.60;99.90;;;;;;476004;249;28904;-71
2021/06/06 00:08:13;;;;;;;63.70;34.60;;;15.50;99.90;;;;;;475966;249;29503;-73
2021/06/06 00:10:14;;;;;;;50.30;27.77;;;15.50;99.90;;;;;;475952;249;29353;-71
2021/06/06 00:12:16;;;;;;;42.50;25.90;;;15.50;99.90;;;;;;475957;249;28936;-72
2021/06/06 00:14:17;;;;;;;39.97;24.67;;;15.40;99.90;;;;;;475966;249;28940;-71
2021/06/06 00:16:18;;;;;;;55.43;32.20;;;15.50;99.90;;;;;;475931;249;28931;-72
2021/06/06 00:18:19;;;;;;;65.07;34.30;;;15.50;99.90;;;;;;475981;249;29067;-73
2021/06/06 00:20:21;;;;;;;65.83;33.77;;;15.50;99.90;;;;;;475971;249;28957;-70
2021/06/06 00:22:22;;;;;;;60.20;35.33;;;15.50;99.90;;;;;;475956;249;29413;-71
2021/06/06 00:24:23;;;;;;;59.00;31.07;;;15.40;99.90;;;;;;475981;249;29524;-72
2021/06/06 00:26:24;;;;;;;50.43;30.37;;;15.50;99.90;;;;;;475947;249;28891;-70
2021/06/06 00:28:26;;;;;;;68.07;36.70;;;15.50;99.90;;;;;;475918;249;28924;-71
2021/06/06 00:30:27;;;;;;;51.87;29.13;;;15.50;99.90;;;;;;475890;249;29019;-70
2021/06/06 00:32:28;;;;;;;83.57;40.90;;;15.40;99.90;;;;;;475672;247;28937;-70
2021/06/06 00:34:29;;;;;;;72.40;37.47;;;15.40;99.90;;;;;;475956;249;28957;-71
2021/06/06 00:36:31;;;;;;;63.13;35.97;;;15.40;99.90;;;;;;475945;249;29482;-72
2021/06/06 00:38:32;;;;;;;43.70;29.00;;;15.40;99.90;;;;;;475936;249;29418;-71
2021/06/06 00:40:36;;;;;;;42.30;24.83;;;15.40;99.90;;;;;;475947;249;28949;-70
2021/06/06 00:42:34;;;;;;;41.80;25.13;;;15.40;99.90;;;;;;475732;250;28970;-71
2021/06/06 00:44:36;;;;;;;45.67;29.83;;;15.50;99.90;;;;;;475955;249;28987;-70
2021/06/06 00:46:37;;;;;;;51.43;30.93;;;15.50;99.90;;;;;;475973;249;29074;-70
2021/06/06 00:48:38;;;;;;;66.77;35.23;;;15.50;99.90;;;;;;475956;249;29029;-72
2021/06/06 00:50:39;;;;;;;52.07;30.83;;;15.40;99.90;;;;;;475964;249;29370;-70
2021/06/06 00:52:41;;;;;;;43.57;28.40;;;15.40;99.90;;;;;;475945;249;29494;-71
2021/06/06 00:54:42;;;;;;;52.27;30.37;;;15.40;99.90;;;;;;475937;249;28946;-70
2021/06/06 00:56:43;;;;;;;48.40;30.20;;;15.40;99.90;;;;;;475974;249;28948;-71
2021/06/06 00:58:45;;;;;;;45.37;28.43;;;15.40;99.90;;;;;;475957;249;28953;-72
2021/06/06 01:00:46;;;;;;;57.87;29.83;;;15.50;99.90;;;;;;475953;249;28922;-71
2021/06/06 01:02:47;;;;;;;51.60;30.90;;;15.50;99.90;;;;;;475905;249;28970;-71
2021/06/06 01:04:48;;;;;;;44.90;26.40;;;15.50;99.90;;;;;;475954;249;29581;-71
2021/06/06 01:06:50;;;;;;;50.10;29.47;;;15.50;99.90;;;;;;475960;249;29473;-70
2021/06/06 01:08:51;;;;;;;43.63;27.47;;;15.40;99.90;;;;;;475940;249;28935;-72
2021/06/06 01:10:52;;;;;;;36.97;23.17;;;15.40;99.90;;;;;;475962;249;28909;-71
2021/06/06 01:12:53;;;;;;;53.03;30.77;;;15.50;99.90;;;;;;475984;249;28994;-71
2021/06/06 01:14:55;;;;;;;46.70;28.50;;;15.40;99.90;;;;;;475955;249;28923;-70
2021/06/06 01:16:56;;;;;;;58.80;32.43;;;15.40;99.90;;;;;;475950;250;28906;-70
2021/06/06 01:18:57;;;;;;;48.60;29.83;;;15.40;99.90;;;;;;475946;249;29417;-72
2021/06/06 01:20:58;;;;;;;92.07;44.10;;;15.40;99.90;;;;;;479403;244;29397;-69
2021/06/06 01:23:00;;;;;;;54.87;32.90;;;15.40;99.90;;;;;;483830;245;28846;-70
2021/06/06 01:25:01;;;;;;;55.97;31.17;;;15.30;99.90;;;;;;483979;245;28786;-72
2021/06/06 01:27:02;;;;;;;72.73;40.63;;;15.40;99.90;;;;;;483843;245;29013;-71
2021/06/06 01:29:03;;;;;;;63.83;34.60;;;15.30;99.90;;;;;;484172;243;28828;-71
2021/06/06 01:31:05;;;;;;;71.10;40.70;;;15.30;99.90;;;;;;484246;245;28782;-70
2021/06/06 01:33:06;;;;;;;60.23;35.40;;;15.30;99.90;;;;;;484268;245;29305;-71
2021/06/06 01:35:07;;;;;;;59.43;33.30;;;15.30;99.90;;;;;;484256;245;30161;-69
2021/06/06 01:37:09;;;;;;;60.90;35.00;;;15.30;99.90;;;;;;484222;245;28776;-70
2021/06/06 01:39:10;;;;;;;59.13;33.73;;;15.30;99.90;;;;;;484240;245;28812;-72
2021/06/06 01:41:11;;;;;;;78.23;42.37;;;15.30;99.90;;;;;;484270;241;28868;-71
2021/06/06 01:43:12;;;;;;;55.70;33.13;;;15.30;99.90;;;;;;484260;245;28893;-72
2021/06/06 01:45:13;;;;;;;85.57;42.67;;;15.30;99.90;;;;;;483925;245;28908;-71
2021/06/06 01:47:15;;;;;;;62.93;35.67;;;15.30;99.90;;;;;;484002;245;29348;-70
2021/06/06 01:49:16;;;;;;;59.37;34.77;;;15.20;99.90;;;;;;484118;242;29371;-71
2021/06/06 01:51:17;;;;;;;63.70;34.50;;;15.20;99.90;;;;;;484213;245;29303;-70
2021/06/06 01:53:18;;;;;;;75.47;39.37;;;15.30;99.90;;;;;;484223;245;28873;-71
2021/06/06 01:55:20;;;;;;;86.47;44.57;;;15.20;99.90;;;;;;484197;245;28785;-70
2021/06/06 01:57:21;;;;;;;90.47;46.60;;;15.20;99.90;;;;;;484216;245;28763;-70
2021/06/06 01:59:22;;;;;;;100.83;50.47;;;15.20;99.90;;;;;;484243;245;28812;-71
2021/06/06 02:01:23;;;;;;;74.43;40.10;;;15.10;99.90;;;;;;484185;245;29414;-70
2021/06/06 02:03:25;;;;;;;69.47;38.03;;;15.10;99.90;;;;;;484224;245;29302;-70
2021/06/06 02:05:26;;;;;;;81.73;42.30;;;15.20;99.90;;;;;;484232;245;28781;-70
2021/06/06 02:07:27;;;;;;;62.53;36.90;;;15.20;99.90;;;;;;484195;245;28790;-71
2021/06/06 02:09:29;;;;;;;64.93;34.47;;;15.20;99.90;;;;;;484207;245;28953;-72
2021/06/06 02:11:30;;;;;;;99.17;48.53;;;15.20;99.90;;;;;;484177;245;28812;-72
2021/06/06 02:13:31;;;;;;;90.63;45.13;;;15.10;99.90;;;;;;484189;245;28816;-71
2021/06/06 02:15:32;;;;;;;94.13;46.77;;;15.10;99.90;;;;;;484175;245;30265;-73
2021/06/06 02:17:34;;;;;;;70.23;38.93;;;15.10;99.90;;;;;;484227;245;29071;-71
2021/06/06 02:19:35;;;;;;;64.30;36.37;;;15.10;99.90;;;;;;484226;245;28822;-71
2021/06/06 02:21:36;;;;;;;94.37;46.13;;;15.10;99.90;;;;;;484205;245;28418;-70
2021/06/06 02:23:37;;;;;;;90.40;44.73;;;15.10;99.90;;;;;;484219;245;28824;-70
2021/06/06 02:25:39;;;;;;;79.43;42.10;;;15.10;99.90;;;;;;484207;245;28760;-70
2021/06/06 02:27:40;;;;;;;78.07;38.97;;;15.10;99.90;;;;;;484232;245;28916;-69
2021/06/06 02:29:41;;;;;;;88.17;44.30;;;15.10;99.90;;;;;;484239;245;29360;-71
2021/06/06 02:31:42;;;;;;;95.73;47.07;;;15.10;99.90;;;;;;484231;245;29251;-70
2021/06/06 02:33:44;;;;;;;76.10;40.17;;;15.00;99.90;;;;;;484228;245;28835;-71
2021/06/06 02:35:46;;;;;;;77.73;40.57;;;15.10;99.90;;;;;;484218;245;28872;-70
2021/06/06 02:37:46;;;;;;;92.60;43.97;;;15.10;99.90;;;;;;484145;245;28822;-70
2021/06/06 02:39:47;;;;;;;102.57;49.23;;;15.10;99.90;;;;;;484218;245;28833;-71
2021/06/06 02:41:49;;;;;;;123.20;51.80;;;15.00;99.90;;;;;;484234;245;28777;-70
2021/06/06 02:43:50;;;;;;;93.97;45.63;;;14.90;99.90;;;;;;484218;245;29334;-72
2021/06/06 02:45:51;;;;;;;97.37;45.87;;;15.00;99.90;;;;;;484242;245;28898;-70
2021/06/06 02:47:52;;;;;;;91.63;44.10;;;14.90;99.90;;;;;;484227;245;28804;-71
2021/06/06 02:49:54;;;;;;;78.50;42.00;;;14.90;99.90;;;;;;484241;245;28813;-72
2021/06/06 02:51:55;;;;;;;100.93;44.70;;;14.90;99.90;;;;;;484221;245;28833;-71
2021/06/06 02:53:59;;;;;;;84.07;41.80;;;15.00;99.90;;;;;;484231;245;28367;-71
2021/06/06 02:56:00;;;;;;;76.77;37.93;;;14.90;99.90;;;;;;484263;245;28584;-72
2021/06/06 02:58:02;;;;;;;90.00;45.33;;;14.90;99.90;;;;;;484189;245;28460;-70
2021/06/06 03:00:05;;;;;;;83.77;42.30;;;15.00;99.90;;;;;;484220;245;29284;-71
2021/06/06 03:02:04;;;;;;;99.90;47.17;;;14.90;99.90;;;;;;484086;245;29404;-70
2021/06/06 03:04:05;;;;;;;113.80;50.77;;;14.90;99.90;;;;;;484243;245;28762;-71
2021/06/06 03:06:07;;;;;;;114.57;51.83;;;14.90;99.90;;;;;;484237;245;28922;-73
2021/06/06 03:08:08;;;;;;;98.23;46.77;;;14.80;99.90;;;;;;484255;245;28840;-70
2021/06/06 03:10:09;;;;;;;120.47;50.83;;;14.90;99.90;;;;;;484218;245;28493;-71
2021/06/06 03:12:10;;;;;;;95.93;45.47;;;14.80;99.90;;;;;;484246;245;29303;-72
2021/06/06 03:14:12;;;;;;;110.17;49.93;;;14.80;99.90;;;;;;484232;245;29220;-73
2021/06/06 03:16:13;;;;;;;110.73;51.27;;;14.80;99.90;;;;;;484233;245;28868;-70
2021/06/06 03:18:14;;;;;;;109.90;50.63;;;14.70;99.90;;;;;;484217;245;28515;-69
2021/06/06 03:20:15;;;;;;;137.23;52.13;;;14.70;99.90;;;;;;484214;245;28880;-70
2021/06/06 03:22:17;;;;;;;166.93;58.30;;;14.70;99.90;;;;;;484256;245;28900;-69
2021/06/06 03:24:18;;;;;;;116.70;52.13;;;14.70;99.90;;;;;;484247;245;28821;-69
2021/06/06 03:26:19;;;;;;;80.13;42.90;;;14.70;99.90;;;;;;484219;245;28905;-70
2021/06/06 03:28:20;;;;;;;92.77;44.50;;;14.70;99.90;;;;;;484199;245;28556;-70
2021/06/06 03:30:22;;;;;;;85.03;43.23;;;14.70;99.90;;;;;;484208;245;28810;-70
2021/06/06 03:32:23;;;;;;;82.97;41.27;;;14.70;99.90;;;;;;484225;245;28578;-72
2021/06/06 03:34:24;;;;;;;89.37;45.20;;;14.70;99.90;;;;;;484222;245;28938;-70
2021/06/06 03:36:26;;;;;;;151.57;59.37;;;14.70;99.90;;;;;;484240;245;28814;-71
2021/06/06 03:38:27;;;;;;;117.87;50.57;;;14.70;99.90;;;;;;484177;245;29242;-71
2021/06/06 03:40:28;;;;;;;108.70;49.77;;;14.70;99.90;;;;;;484210;245;28472;-71
2021/06/06 03:42:30;;;;;;;182.43;62.10;;;14.70;99.90;;;;;;484246;245;28486;-71
2021/06/06 03:44:31;;;;;;;168.17;59.97;;;14.60;99.90;;;;;;484181;245;28764;-70
2021/06/06 03:46:32;;;;;;;94.37;47.10;;;14.70;99.90;;;;;;484232;245;28507;-72
2021/06/06 03:48:33;;;;;;;115.80;48.37;;;14.70;99.90;;;;;;484212;245;28601;-70
2021/06/06 03:50:34;;;;;;;100.20;45.40;;;14.60;99.90;;;;;;484197;245;29377;-71
2021/06/06 03:52:36;;;;;;;116.97;51.70;;;14.60;99.90;;;;;;484232;245;28508;-72
2021/06/06 03:54:37;;;;;;;140.53;56.50;;;14.60;99.90;;;;;;484227;245;28387;-71
2021/06/06 03:56:38;;;;;;;107.33;48.87;;;14.60;99.90;;;;;;484222;245;28861;-72
2021/06/06 03:58:39;;;;;;;116.70;50.50;;;14.60;99.90;;;;;;484203;245;28835;-70
2021/06/06 04:00:41;;;;;;;93.73;43.80;;;14.70;99.90;;;;;;484198;245;28952;-70
2021/06/06 04:02:42;;;;;;;82.07;42.10;;;14.60;99.90;;;;;;484215;245;29307;-72
2021/06/06 04:04:43;;;;;;;77.17;39.23;;;14.60;99.90;;;;;;484216;245;28442;-70
2021/06/06 04:06:44;;;;;;;108.77;50.50;;;14.70;99.90;;;;;;484210;243;28406;-71
2021/06/06 04:08:46;;;;;;;124.73;54.50;;;14.60;99.90;;;;;;484203;245;28855;-70
2021/06/06 04:10:47;;;;;;;116.07;54.37;;;14.60;99.90;;;;;;484196;245;28984;-70
2021/06/06 04:12:48;;;;;;;123.63;54.87;;;14.60;99.90;;;;;;484243;245;28349;-71
2021/06/06 04:14:50;;;;;;;113.10;52.23;;;14.60;99.90;;;;;;484217;245;28915;-70
2021/06/06 04:16:51;;;;;;;111.33;50.37;;;14.60;99.90;;;;;;484223;245;28799;-72
2021/06/06 04:18:52;;;;;;;118.33;56.33;;;14.70;99.90;;;;;;484211;245;28141;-71
2021/06/06 04:20:53;;;;;;;154.87;63.17;;;14.60;99.90;;;;;;484213;245;28401;-71
2021/06/06 04:22:55;;;;;;;149.97;62.00;;;14.60;99.90;;;;;;484269;245;28852;-72
2021/06/06 04:24:56;;;;;;;115.23;54.83;;;14.60;99.90;;;;;;484242;245;28893;-71
2021/06/06 04:26:57;;;;;;;106.90;52.60;;;14.60;99.90;;;;;;484254;245;29303;-70
2021/06/06 04:28:58;;;;;;;88.40;45.80;;;14.60;99.90;;;;;;484237;245;28764;-70
2021/06/06 04:31:00;;;;;;;183.33;65.67;;;14.60;99.90;;;;;;484192;245;28504;-71
2021/06/06 04:33:06;;;;;;;107.67;50.90;;;14.60;99.90;;;;;;484220;245;28833;-72
2021/06/06 04:35:02;;;;;;;109.73;50.10;;;14.60;99.90;;;;;;483805;245;28414;-70
2021/06/06 04:37:03;;;;;;;119.27;53.67;;;14.60;99.90;;;;;;484057;245;29058;-71
2021/06/06 04:39:05;;;;;;;86.87;43.40;;;14.60;99.90;;;;;;484030;244;28949;-70
2021/06/06 04:41:06;;;;;;;95.23;46.63;;;14.60;99.90;;;;;;484148;245;28565;-71
2021/06/06 04:43:07;;;;;;;90.57;44.47;;;14.60;99.90;;;;;;484196;245;28604;-71
2021/06/06 04:45:08;;;;;;;93.00;44.40;;;14.60;99.90;;;;;;484201;245;28471;-71
2021/06/06 04:47:10;;;;;;;93.43;47.10;;;14.70;99.90;;;;;;484120;245;28930;-71
2021/06/06 04:49:11;;;;;;;107.37;51.17;;;14.70;99.90;;;;;;484195;245;29027;-71
2021/06/06 04:51:12;;;;;;;105.77;53.30;;;14.60;99.90;;;;;;484214;242;28838;-70
2021/06/06 04:53:13;;;;;;;92.87;44.27;;;14.60;99.90;;;;;;484211;245;28269;-72
2021/06/06 04:55:15;;;;;;;105.87;52.40;;;14.60;99.90;;;;;;484253;245;28465;-72
2021/06/06 04:57:16;;;;;;;104.03;48.50;;;14.50;99.90;;;;;;484169;245;28863;-70
2021/06/06 04:59:17;;;;;;;115.37;51.03;;;14.60;99.90;;;;;;484216;245;29036;-71
2021/06/06 05:01:18;;;;;;;120.23;54.13;;;14.60;99.90;;;;;;484191;245;28329;-71
2021/06/06 05:03:20;;;;;;;113.90;55.30;;;14.60;99.90;;;;;;484182;245;28919;-71
2021/06/06 05:05:21;;;;;;;97.23;47.50;;;14.50;99.90;;;;;;484210;245;28215;-70
2021/06/06 05:07:22;;;;;;;113.37;54.00;;;14.60;99.90;;;;;;484182;245;28410;-70
2021/06/06 05:09:24;;;;;;;120.83;52.97;;;14.50;99.90;;;;;;484183;245;28562;-70
2021/06/06 05:11:25;;;;;;;117.83;53.23;;;14.50;99.90;;;;;;484219;245;29349;-70
2021/06/06 05:13:26;;;;;;;127.60;56.10;;;14.50;99.90;;;;;;483840;245;28586;-72
2021/06/06 05:15:27;;;;;;;101.60;49.60;;;14.50;99.90;;;;;;484119;245;28467;-70
2021/06/06 05:17:29;;;;;;;92.57;45.30;;;14.50;99.90;;;;;;484043;245;28829;-71
2021/06/06 05:19:30;;;;;;;106.43;50.43;;;14.60;99.90;;;;;;484056;245;28291;-70
2021/06/06 05:21:31;;;;;;;121.97;54.70;;;14.50;99.90;;;;;;484228;245;28871;-71
2021/06/06 05:23:32;;;;;;;118.20;54.20;;;14.40;99.90;;;;;;484249;245;29067;-73
2021/06/06 05:25:34;;;;;;;104.87;50.33;;;14.40;99.90;;;;;;484245;245;28198;-70
2021/06/06 05:27:35;;;;;;;113.83;53.50;;;14.50;99.90;;;;;;484238;245;28360;-71
2021/06/06 05:29:36;;;;;;;117.50;52.43;;;14.50;99.90;;;;;;484222;245;28256;-70
2021/06/06 05:31:37;;;;;;;98.43;47.37;;;14.50;99.90;;;;;;484220;245;28353;-70
2021/06/06 05:33:39;;;;;;;118.37;51.93;;;14.50;99.90;;;;;;484227;245;29087;-73
2021/06/06 05:35:40;;;;;;;116.47;50.90;;;14.50;99.90;;;;;;484245;245;28941;-72
2021/06/06 05:37:41;;;;;;;99.40;48.90;;;14.40;99.90;;;;;;484243;245;28375;-72
2021/06/06 05:39:42;;;;;;;91.60;46.50;;;14.50;99.90;;;;;;484242;245;28556;-71
2021/06/06 05:41:44;;;;;;;96.30;47.43;;;14.60;99.90;;;;;;484240;245;28827;-72
2021/06/06 05:43:45;;;;;;;91.67;47.03;;;14.60;99.90;;;;;;484264;245;28811;-71
2021/06/06 05:45:46;;;;;;;80.33;43.80;;;14.50;99.90;;;;;;484272;245;28471;-70
2021/06/06 05:47:47;;;;;;;81.67;42.40;;;14.60;99.90;;;;;;484271;245;28929;-70
2021/06/06 05:49:49;;;;;;;70.90;41.57;;;14.60;99.90;;;;;;484235;245;28895;-70
2021/06/06 05:51:50;;;;;;;79.40;44.20;;;14.60;99.90;;;;;;484206;245;28405;-72
2021/06/06 05:53:51;;;;;;;65.33;37.87;;;14.60;99.90;;;;;;484232;245;28496;-74
2021/06/06 05:55:53;;;;;;;68.17;39.87;;;14.60;99.90;;;;;;484215;245;28340;-72
2021/06/06 05:57:54;;;;;;;87.73;46.20;;;14.60;99.90;;;;;;484205;245;28387;-72
2021/06/06 05:59:55;;;;;;;105.40;49.33;;;14.60;99.90;;;;;;484221;245;28814;-70
2021/06/06 06:01:56;;;;;;;73.67;41.80;;;14.60;99.90;;;;;;484213;245;29384;-69
2021/06/06 06:03:58;;;;;;;77.23;43.07;;;14.70;99.90;;;;;;484225;245;28856;-73
2021/06/06 06:05:59;;;;;;;104.90;49.77;;;14.70;99.90;;;;;;484231;245;28755;-71
2021/06/06 06:08:00;;;;;;;73.37;41.07;;;14.60;99.90;;;;;;484211;245;28557;-71
2021/06/06 06:10:01;;;;;;;78.03;43.63;;;14.70;99.90;;;;;;484213;245;28889;-73
2021/06/06 06:12:03;;;;;;;72.80;39.57;;;14.60;99.90;;;;;;484200;245;28813;-71
2021/06/06 06:14:04;;;;;;;85.87;44.40;;;14.60;99.90;;;;;;484225;245;28998;-73
2021/06/06 06:16:05;;;;;;;77.30;42.30;;;14.60;99.90;;;;;;484207;245;29103;-71
2021/06/06 06:18:06;;;;;;;70.20;39.97;;;14.70;99.90;;;;;;484227;245;28828;-72
2021/06/06 06:20:08;;;;;;;86.43;42.80;;;14.80;99.90;;;;;;484247;245;28810;-70
2021/06/06 06:22:09;;;;;;;67.70;39.70;;;14.80;99.90;;;;;;484221;245;28553;-71
2021/06/06 06:24:10;;;;;;;79.43;43.47;;;14.80;99.90;;;;;;484250;245;28883;-70
2021/06/06 06:26:11;;;;;;;60.87;36.67;;;14.90;99.90;;;;;;484224;245;28881;-71
2021/06/06 06:28:13;;;;;;;60.53;37.40;;;14.90;99.90;;;;;;484235;245;30299;-72
2021/06/06 06:30:14;;;;;;;52.70;33.20;;;15.10;99.90;;;;;;484209;245;29320;-70
2021/06/06 06:32:15;;;;;;;60.73;36.47;;;15.20;99.90;;;;;;484206;245;28808;-73
2021/06/06 06:34:16;;;;;;;75.43;40.23;;;15.10;99.90;;;;;;484231;245;28890;-69
2021/06/06 06:36:18;;;;;;;54.83;34.83;;;15.10;99.90;;;;;;484242;245;28895;-71
2021/06/06 06:38:20;;;;;;;57.77;33.70;;;15.00;99.90;;;;;;484209;245;28928;-71
2021/06/06 06:40:20;;;;;;;50.87;32.57;;;15.10;99.90;;;;;;484154;245;28835;-73
2021/06/06 06:42:21;;;;;;;68.00;36.30;;;15.10;99.90;;;;;;484213;245;29350;-70
2021/06/06 06:44:23;;;;;;;50.30;30.87;;;15.10;99.90;;;;;;484235;242;29500;-72
2021/06/06 06:46:24;;;;;;;55.17;33.97;;;15.00;99.90;;;;;;484238;245;28768;-70
2021/06/06 06:48:25;;;;;;;54.80;34.17;;;14.90;99.90;;;;;;484228;245;28818;-70
2021/06/06 06:50:26;;;;;;;59.33;34.93;;;15.00;99.90;;;;;;484254;245;28857;-71
2021/06/06 06:52:28;;;;;;;57.20;33.67;;;15.10;99.90;;;;;;484207;245;28808;-72
2021/06/06 06:54:29;;;;;;;59.57;35.97;;;15.00;99.90;;;;;;484240;245;28796;-72
2021/06/06 06:56:30;;;;;;;46.67;30.37;;;15.00;99.90;;;;;;484259;245;29248;-72
2021/06/06 06:58:31;;;;;;;53.87;33.07;;;15.00;99.90;;;;;;484233;245;29290;-72
2021/06/06 07:00:33;;;;;;;60.00;34.00;;;15.10;99.90;;;;;;484243;245;28770;-71
2021/06/06 07:02:34;;;;;;;54.00;33.77;;;15.10;99.90;;;;;;484243;245;28832;-72
2021/06/06 07:04:35;;;;;;;55.87;35.07;;;15.10;99.90;;;;;;484239;245;28922;-69
2021/06/06 07:06:37;;;;;;;53.93;32.30;;;15.00;99.90;;;;;;484232;242;28837;-69
2021/06/06 07:08:38;;;;;;;50.20;29.90;;;15.10;99.90;;;;;;484228;245;28808;-71
2021/06/06 07:10:39;;;;;;;53.37;32.07;;;15.10;99.90;;;;;;484208;245;29326;-69
2021/06/06 07:12:40;;;;;;;59.90;37.20;;;15.30;99.90;;;;;;484200;245;29391;-72
2021/06/06 07:14:42;;;;;;;50.17;32.53;;;15.30;99.90;;;;;;484205;245;30039;-72
2021/06/06 07:16:43;;;;;;;43.47;28.97;;;15.30;99.90;;;;;;484239;245;28747;-71
2021/06/06 07:18:44;;;;;;;45.30;28.03;;;15.50;99.90;;;;;;484206;245;28801;-71
2021/06/06 07:20:45;;;;;;;44.60;29.30;;;15.50;99.90;;;;;;484218;245;28833;-70
2021/06/06 07:22:47;;;;;;;46.73;29.90;;;15.50;99.90;;;;;;484199;245;28816;-70
2021/06/06 07:24:48;;;;;;;65.40;37.10;;;15.40;99.90;;;;;;484207;245;28806;-72
2021/06/06 07:26:49;;;;;;;54.60;32.73;;;15.20;99.90;;;;;;484234;245;29310;-70
2021/06/06 07:28:51;;;;;;;52.53;30.90;;;15.20;99.90;;;;;;484213;245;29226;-72
2021/06/06 07:30:52;;;;;;;53.93;33.50;;;15.00;99.90;;;;;;484192;245;28745;-71
2021/06/06 07:32:53;;;;;;;53.47;33.87;;;15.10;99.90;;;;;;484219;245;28804;-70
2021/06/06 07:34:54;;;;;;;52.27;30.13;;;14.90;99.90;;;;;;484207;245;28782;-71
2021/06/06 07:36:55;;;;;;;61.73;36.83;;;14.90;99.90;;;;;;484221;245;28866;-71
2021/06/06 07:38:57;;;;;;;60.60;36.13;;;14.80;99.90;;;;;;484205;245;28576;-71
2021/06/06 07:40:58;;;;;;;50.57;30.53;;;14.70;99.90;;;;;;484207;245;29220;-69
2021/06/06 07:42:59;;;;;;;59.00;33.87;;;14.70;99.90;;;;;;484211;245;29305;-70
2021/06/06 07:45:00;;;;;;;50.40;30.67;;;14.80;99.90;;;;;;484209;245;28895;-70
2021/06/06 07:47:02;;;;;;;49.30;31.63;;;14.80;99.90;;;;;;484217;245;28811;-71
2021/06/06 07:49:03;;;;;;;46.93;31.20;;;14.80;99.90;;;;;;484210;245;28899;-71
2021/06/06 07:51:04;;;;;;;48.40;29.67;;;14.80;99.90;;;;;;484218;245;28779;-70
2021/06/06 07:53:05;;;;;;;56.10;31.77;;;14.80;99.90;;;;;;484209;245;28911;-71
2021/06/06 07:55:07;;;;;;;50.93;29.77;;;14.80;99.90;;;;;;483905;245;29637;-71
2021/06/06 07:57:08;;;;;;;35.00;23.07;;;14.80;99.90;;;;;;482471;245;29341;-70
2021/06/06 07:59:10;;;;;;;35.50;24.30;;;14.90;99.90;;;;;;485451;243;28926;-72
2021/06/06 08:01:10;;;;;;;40.80;25.10;;;15.10;99.90;;;;;;479541;245;28816;-70
2021/06/06 08:03:12;;;;;;;37.63;25.00;;;15.10;99.90;;;;;;477169;247;28941;-72
2021/06/06 08:05:13;;;;;;;45.50;29.27;;;15.20;99.90;;;;;;477608;247;28718;-71
2021/06/06 08:07:14;;;;;;;36.23;24.03;;;15.20;99.90;;;;;;478358;246;28897;-72
2021/06/06 08:09:16;;;;;;;37.20;24.07;;;15.40;99.90;;;;;;476557;249;29365;-74
2021/06/06 08:11:17;;;;;;;32.57;21.00;;;15.40;99.90;;;;;;478747;246;29303;-71
2021/06/06 08:13:18;;;;;;;34.90;23.20;;;15.50;99.90;;;;;;482026;246;28877;-73
2021/06/06 08:15:19;;;;;;;41.00;22.93;;;15.70;99.90;;;;;;482055;246;28838;-71
2021/06/06 08:17:21;;;;;;;33.40;23.10;;;15.50;99.90;;;;;;482039;246;28860;-72
2021/06/06 08:19:22;;;;;;;28.57;20.03;;;15.60;99.90;;;;;;482041;246;28977;-73
2021/06/06 08:21:23;;;;;;;32.20;21.10;;;15.70;99.90;;;;;;482025;246;28835;-72
2021/06/06 08:23:24;;;;;;;31.43;21.53;;;15.90;99.90;;;;;;482030;246;29603;-74
2021/06/06 08:25:26;;;;;;;33.90;23.80;;;16.10;99.90;;;;;;481979;246;29378;-69
2021/06/06 08:27:27;;;;;;;27.70;19.30;;;16.20;99.90;;;;;;476790;249;29015;-72
2021/06/06 08:29:28;;;;;;;33.37;21.30;;;16.10;99.90;;;;;;476798;249;28932;-74
2021/06/06 08:31:29;;;;;;;32.70;19.97;;;16.20;99.90;;;;;;476788;249;28909;-72
2021/06/06 08:33:31;;;;;;;28.13;18.93;;;16.30;99.90;;;;;;476805;249;29083;-72
2021/06/06 08:35:32;;;;;;;29.93;20.67;;;16.40;99.90;;;;;;476781;247;28953;-72
2021/06/06 08:37:33;;;;;;;22.97;16.83;;;16.60;99.90;;;;;;478503;247;29291;-72
2021/06/06 08:39:34;;;;;;;25.30;18.50;;;16.60;99.90;;;;;;476639;249;29396;-72
2021/06/06 08:41:36;;;;;;;23.67;17.50;;;16.80;99.90;;;;;;476611;249;28862;-72
2021/06/06 08:43:37;;;;;;;20.13;15.30;;;16.80;99.90;;;;;;476627;249;28814;-72
2021/06/06 08:45:38;;;;;;;22.60;17.10;;;16.80;99.90;;;;;;476613;249;28738;-71
2021/06/06 08:47:39;;;;;;;30.73;18.47;;;16.70;99.90;;;;;;476577;249;28874;-72
2021/06/06 08:49:41;;;;;;;26.63;19.80;;;16.60;99.90;;;;;;476577;249;28804;-73
2021/06/06 08:51:42;;;;;;;30.13;19.80;;;16.70;99.90;;;;;;476552;249;29214;-71
2021/06/06 08:53:43;;;;;;;23.60;18.30;;;16.50;99.90;;;;;;476574;249;29296;-71
2021/06/06 08:55:44;;;;;;;23.67;16.67;;;16.50;99.90;;;;;;476613;249;28839;-71
2021/06/06 08:57:46;;;;;;;20.67;15.83;;;16.70;99.90;;;;;;476592;249;28878;-72
2021/06/06 08:59:49;;;;;;;19.20;14.93;;;16.60;99.90;;;;;;476614;249;28794;-74
2021/06/06 09:01:48;;;;;;;22.20;16.73;;;16.70;99.90;;;;;;476476;249;28754;-72
2021/06/06 09:03:49;;;;;;;18.67;13.97;;;16.80;99.90;;;;;;476616;249;28889;-72
2021/06/06 09:05:51;;;;;;;23.27;16.57;;;16.80;99.90;;;;;;476629;249;29243;-72
2021/06/06 09:07:52;;;;;;;23.40;16.70;;;16.60;99.90;;;;;;477566;247;29351;-72
2021/06/06 09:09:53;;;;;;;23.33;17.83;;;16.60;99.90;;;;;;477674;247;28901;-74
2021/06/06 09:11:55;;;;;;;21.87;16.10;;;16.50;99.90;;;;;;476710;247;28818;-71
2021/06/06 09:13:56;;;;;;;24.63;17.90;;;16.40;99.90;;;;;;476611;249;28803;-72
2021/06/06 09:15:57;;;;;;;24.13;17.37;;;16.30;99.90;;;;;;476620;249;28739;-72
2021/06/06 09:17:58;;;;;;;17.80;14.50;;;16.30;99.90;;;;;;476603;249;28908;-70
2021/06/06 09:20:00;;;;;;;26.33;19.37;;;16.40;99.90;;;;;;476679;247;29344;-71
2021/06/06 09:22:02;;;;;;;20.07;16.13;;;16.40;99.90;;;;;;476801;249;29458;-70
2021/06/06 09:24:02;;;;;;;19.60;14.47;;;16.50;99.90;;;;;;476743;249;28955;-73
2021/06/06 09:26:03;;;;;;;22.93;17.07;;;16.60;99.90;;;;;;476883;247;28900;-72
2021/06/06 09:28:05;;;;;;;19.07;14.93;;;16.80;99.90;;;;;;477634;247;28894;-73
2021/06/06 09:30:06;;;;;;;20.50;15.23;;;16.80;99.90;;;;;;476851;249;29307;-74
2021/06/06 09:32:07;;;;;;;15.17;12.10;;;16.90;99.90;;;;;;476817;249;28964;-70
2021/06/06 09:34:08;;;;;;;27.60;18.40;;;17.10;99.90;;;;;;476809;249;29503;-73
2021/06/06 09:36:10;;;;;;;19.03;15.47;;;16.80;99.90;;;;;;476821;249;29434;-70
2021/06/06 09:38:11;;;;;;;22.90;17.27;;;16.70;99.90;;;;;;476783;249;28928;-72
2021/06/06 09:40:12;;;;;;;22.20;16.50;;;17.00;99.90;;;;;;476813;249;28971;-73
2021/06/06 09:42:13;;;;;;;20.50;15.83;;;17.20;99.90;;;;;;476812;249;28938;-70
2021/06/06 09:44:15;;;;;;;23.90;17.60;;;17.00;99.90;;;;;;476805;249;28936;-71
2021/06/06 09:46:16;;;;;;;21.63;16.23;;;16.80;99.90;;;;;;476808;249;28949;-70
2021/06/06 09:48:17;;;;;;;19.37;14.23;;;16.80;99.90;;;;;;476796;249;29403;-71
2021/06/06 09:50:18;;;;;;;25.60;17.93;;;17.10;99.90;;;;;;476808;245;29442;-72
2021/06/06 09:52:20;;;;;;;26.60;18.63;;;17.00;99.90;;;;;;476784;249;28904;-70
2021/06/06 09:54:21;;;;;;;26.50;18.70;;;16.70;99.90;;;;;;476797;245;28910;-70
2021/06/06 09:56:22;;;;;;;28.43;19.10;;;16.60;99.90;;;;;;476802;249;28906;-70
2021/06/06 09:58:23;;;;;;;32.63;19.73;;;16.70;99.90;;;;;;476801;249;28944;-70
2021/06/06 10:00:28;;;;;;;24.80;18.70;;;16.50;99.90;;;;;;476768;249;29223;-71
2021/06/06 10:02:26;;;;;;;25.20;18.33;;;16.50;99.90;;;;;;476573;249;29038;-72
2021/06/06 10:04:27;;;;;;;28.47;19.37;;;16.50;99.90;;;;;;476792;249;28908;-73
2021/06/06 10:06:29;;;;;;;25.50;18.70;;;16.40;99.90;;;;;;476770;249;28897;-71
2021/06/06 10:08:30;;;;;;;28.53;19.27;;;16.50;99.90;;;;;;476794;249;29414;-70
2021/06/06 10:10:31;;;;;;;26.00;19.17;;;16.50;99.90;;;;;;476764;249;29555;-72
2021/06/06 10:12:34;;;;;;;25.03;17.67;;;16.50;99.90;;;;;;476811;249;28901;-72